Abbott, New Mexico
Current Conditions -  °F | °C
As of 12:53 AM on Tuesday 21 Oct 2014 (Local Time) from KRTN Reporting Station
Few Clouds Few Clouds  
Wind Chill: 45°   Ceiling: Unl
Heat Index: 45°   Visibility: 10mi
Dew Point: 38°   Wind: 3mph
Humidity: 76%   Direction: 60°ENE
Pressure: 30.21"   Gusts: NA
Location:  36.3883°N, 104.381°W
Report Text: KRTN 210653Z AUTO 06003KT 10SM FEW041 07/03 A3021 RMK AO2 SLP167 T00720033 402220039
Loading
Personal Weather Stations






























Interactive Weather Map
Tropical Storm Tracking
New forecast layout! Learn more

10-Day Weather Forecast

Advertisements
Track Severe Weather on mobile